Time;durP1;ratioP1;P1;durP2;ratioP2;P2;SDS_P1;SDS_P2;PMS_P1;PMS_P2;Temp;Humidity;BMP_temperature;BMP_pressure;BME280_temperature;BME280_humidity;BME280_pressure;Samples;Min_cycle;Max_cycle;Signal;HPM_P1;HPM_P2
2023/08/22 00:01:07;;;;;;;2.67;1.23;;;;;;;;;;5054594;28;20102;-75
2023/08/22 00:03:34;;;;;;;1.98;1.48;;;;;;;;;;5055338;28;20201;-75
2023/08/22 00:05:59;;;;;;;2.00;1.27;;;;;;;;;;5054862;28;20033;-75
2023/08/22 00:08:25;;;;;;;1.70;1.60;;;;;;;;;;5053269;28;20028;-75
2023/08/22 00:10:50;;;;;;;2.30;1.30;;;;;;;;;;5054477;28;20029;-75
2023/08/22 00:13:16;;;;;;;2.15;1.40;;;;;;;;;;5053245;28;20044;-75
2023/08/22 00:15:41;;;;;;;2.00;1.50;;;;;;;;;;5053054;28;20082;-75
2023/08/22 00:18:08;;;;;;;2.78;1.50;;;;;;;;;;5054582;28;20380;-75
2023/08/22 00:20:33;;;;;;;2.83;1.58;;;;;;;;;;5053080;28;20118;-75
2023/08/22 00:22:58;;;;;;;1.60;1.50;;;;;;;;;;5054222;28;20475;-75
2023/08/22 00:25:24;;;;;;;1.50;1.40;;;;;;;;;;5054158;28;20037;-76
2023/08/22 00:27:49;;;;;;;2.97;1.60;;;;;;;;;;5052895;28;20078;-75
2023/08/22 00:30:15;;;;;;;2.00;1.40;;;;;;;;;;5054651;28;20472;-76
2023/08/22 00:32:40;;;;;;;2.15;1.40;;;;;;;;;;5053050;28;20036;-75
2023/08/22 00:35:06;;;;;;;2.70;1.60;;;;;;;;;;5052922;28;20167;-75
2023/08/22 00:37:31;;;;;;;2.75;1.35;;;;;;;;;;5054212;28;20029;-75
2023/08/22 00:39:56;;;;;;;1.70;1.50;;;;;;;;;;5053843;28;20043;-75
2023/08/22 00:42:22;;;;;;;2.05;1.50;;;;;;;;;;5052996;28;20029;-75
2023/08/22 00:44:47;;;;;;;3.33;1.60;;;;;;;;;;5053580;28;20045;-76
2023/08/22 00:47:13;;;;;;;1.60;1.40;;;;;;;;;;5052737;28;20041;-76
2023/08/22 00:49:39;;;;;;;2.10;1.52;;;;;;;;;;5052593;28;20025;-75
2023/08/22 00:52:05;;;;;;;1.67;1.30;;;;;;;;;;5035624;28;20071;-76
2023/08/22 00:54:31;;;;;;;1.60;1.45;;;;;;;;;;5052415;28;20036;-75
2023/08/22 00:56:57;;;;;;;2.47;1.50;;;;;;;;;;5052584;28;20021;-76
2023/08/22 00:59:25;;;;;;;1.45;1.35;;;;;;;;;;5052636;28;20079;-75
2023/08/22 01:01:50;;;;;;;1.92;1.40;;;;;;;;;;5035514;28;20403;-76
2023/08/22 01:04:16;;;;;;;1.77;1.30;;;;;;;;;;5053418;28;20037;-76
2023/08/22 01:07:06;;;;;;;4.00;1.40;;;;;;;;;;5054325;28;20574;-76
2023/08/22 01:09:35;;;;;;;1.65;1.40;;;;;;;;;;5052139;28;20463;-76
2023/08/22 01:12:11;;;;;;;1.88;1.50;;;;;;;;;;5052142;28;20032;-76
2023/08/22 01:14:58;;;;;;;2.38;1.55;;;;;;;;;;5052665;28;20103;-75
2023/08/22 01:17:24;;;;;;;2.47;1.60;;;;;;;;;;5052059;28;20029;-76
2023/08/22 01:19:49;;;;;;;2.80;1.30;;;;;;;;;;5052159;28;20035;-75
2023/08/22 01:22:15;;;;;;;2.00;1.40;;;;;;;;;;5051975;28;20063;-75
2023/08/22 01:24:40;;;;;;;4.00;1.67;;;;;;;;;;5051940;28;20061;-75
2023/08/22 01:27:09;;;;;;;1.98;1.60;;;;;;;;;;5053337;28;20036;-75
2023/08/22 01:29:51;;;;;;;2.40;1.30;;;;;;;;;;5035577;28;20139;-76
2023/08/22 01:32:23;;;;;;;2.65;1.55;;;;;;;;;;5052162;28;20021;-75
2023/08/22 01:34:50;;;;;;;1.65;1.55;;;;;;;;;;5051842;28;20086;-75
2023/08/22 01:37:17;;;;;;;2.40;1.52;;;;;;;;;;5051892;28;20029;-75
2023/08/22 01:39:43;;;;;;;6.20;1.70;;;;;;;;;;5052994;28;20028;-75
2023/08/22 01:42:10;;;;;;;1.63;1.42;;;;;;;;;;5053464;28;20029;-75
2023/08/22 01:44:36;;;;;;;2.20;1.30;;;;;;;;;;5052018;28;20392;-75
2023/08/22 01:47:02;;;;;;;2.95;1.55;;;;;;;;;;5051837;28;20084;-75
2023/08/22 01:49:28;;;;;;;2.45;1.60;;;;;;;;;;5051650;28;20056;-75
2023/08/22 01:51:55;;;;;;;2.13;1.40;;;;;;;;;;5051763;28;20100;-75
2023/08/22 01:54:21;;;;;;;2.38;1.70;;;;;;;;;;5053130;28;20033;-75
2023/08/22 01:56:46;;;;;;;2.55;1.45;;;;;;;;;;5051663;28;20029;-76
2023/08/22 01:59:12;;;;;;;2.22;1.65;;;;;;;;;;5051955;28;20021;-76
2023/08/22 02:01:37;;;;;;;1.60;1.48;;;;;;;;;;5052634;28;20033;-76
2023/08/22 02:04:03;;;;;;;1.50;1.27;;;;;;;;;;5055462;28;20024;-76
2023/08/22 02:06:29;;;;;;;2.13;1.50;;;;;;;;;;5057184;28;20029;-76
2023/08/22 02:08:54;;;;;;;2.30;1.45;;;;;;;;;;5038952;28;20403;-76
2023/08/22 02:11:20;;;;;;;1.90;1.50;;;;;;;;;;5056902;28;20444;-76
2023/08/22 02:13:45;;;;;;;2.95;1.70;;;;;;;;;;5055617;28;20021;-76
2023/08/22 02:16:10;;;;;;;3.22;1.98;;;;;;;;;;5055374;28;20036;-76
2023/08/22 02:18:36;;;;;;;2.28;1.65;;;;;;;;;;5038716;28;20124;-76
2023/08/22 02:21:02;;;;;;;2.33;1.55;;;;;;;;;;5056400;28;20032;-76
2023/08/22 02:23:27;;;;;;;3.95;1.60;;;;;;;;;;5055864;28;20108;-76
2023/08/22 02:25:53;;;;;;;1.80;1.40;;;;;;;;;;5056758;28;20044;-76
2023/08/22 02:28:18;;;;;;;2.03;1.55;;;;;;;;;;5055194;28;20033;-76
2023/08/22 02:30:44;;;;;;;2.55;1.50;;;;;;;;;;5055282;28;20060;-76
2023/08/22 02:33:09;;;;;;;2.45;1.60;;;;;;;;;;5055076;28;20117;-75
2023/08/22 02:35:35;;;;;;;3.25;1.45;;;;;;;;;;5055383;28;20033;-76
2023/08/22 02:38:00;;;;;;;2.92;1.77;;;;;;;;;;5055248;28;20041;-76
2023/08/22 02:40:25;;;;;;;1.50;1.40;;;;;;;;;;5056027;28;20037;-76
2023/08/22 02:42:52;;;;;;;4.13;1.60;;;;;;;;;;5054738;28;20044;-75
2023/08/22 02:45:17;;;;;;;4.55;1.50;;;;;;;;;;5054943;28;20417;-75
2023/08/22 02:47:43;;;;;;;2.35;1.40;;;;;;;;;;5056306;28;20025;-76
2023/08/22 02:50:08;;;;;;;2.70;1.77;;;;;;;;;;5055967;28;20033;-76
2023/08/22 02:52:34;;;;;;;2.13;1.50;;;;;;;;;;5021531;28;20040;-76
2023/08/22 02:54:59;;;;;;;2.97;1.60;;;;;;;;;;5055899;28;20068;-75
2023/08/22 02:57:25;;;;;;;2.25;1.55;;;;;;;;;;5055807;28;20028;-76
2023/08/22 02:59:50;;;;;;;4.13;1.35;;;;;;;;;;5037827;28;20040;-76
2023/08/22 03:02:15;;;;;;;2.72;1.27;;;;;;;;;;5054367;28;20062;-76
2023/08/22 03:04:41;;;;;;;2.22;1.30;;;;;;;;;;5054390;28;20025;-75
2023/08/22 03:07:09;;;;;;;1.90;1.30;;;;;;;;;;5054434;28;20040;-76
2023/08/22 03:09:34;;;;;;;1.50;1.40;;;;;;;;;;5055625;28;20159;-76
2023/08/22 03:12:00;;;;;;;1.65;1.52;;;;;;;;;;5055771;28;20574;-76
2023/08/22 03:14:25;;;;;;;3.83;1.70;;;;;;;;;;5054471;28;20029;-75
2023/08/22 03:16:50;;;;;;;1.75;1.45;;;;;;;;;;5055500;28;20047;-76
2023/08/22 03:19:16;;;;;;;2.13;1.38;;;;;;;;;;5054518;28;20373;-76
2023/08/22 03:21:41;;;;;;;2.83;1.70;;;;;;;;;;5054267;28;20029;-76
2023/08/22 03:24:07;;;;;;;2.35;1.38;;;;;;;;;;5055635;28;20491;-76
2023/08/22 03:26:32;;;;;;;3.53;1.45;;;;;;;;;;5055321;28;20029;-77
2023/08/22 03:28:57;;;;;;;2.40;1.50;;;;;;;;;;5055223;28;20039;-76
2023/08/22 03:31:25;;;;;;;2.60;1.60;;;;;;;;;;5054023;28;20032;-76
2023/08/22 03:33:51;;;;;;;3.63;1.67;;;;;;;;;;5054229;28;20039;-76
2023/08/22 03:36:16;;;;;;;2.08;1.52;;;;;;;;;;5055551;28;20124;-76
2023/08/22 03:38:41;;;;;;;1.73;1.48;;;;;;;;;;5055591;28;20103;-76
2023/08/22 03:41:07;;;;;;;2.55;1.95;;;;;;;;;;5054931;28;20040;-76
2023/08/22 03:43:32;;;;;;;2.00;1.38;;;;;;;;;;5053869;28;20426;-76
2023/08/22 03:45:58;;;;;;;1.60;1.48;;;;;;;;;;5054806;28;20045;-76
2023/08/22 03:48:23;;;;;;;2.08;1.30;;;;;;;;;;5055130;28;20025;-76
2023/08/22 03:50:48;;;;;;;1.17;1.13;;;;;;;;;;5055206;28;20021;-76
2023/08/22 03:53:15;;;;;;;3.50;1.50;;;;;;;;;;5054814;28;20146;-76
2023/08/22 03:55:41;;;;;;;2.22;1.33;;;;;;;;;;5054992;28;20072;-76
2023/08/22 03:58:07;;;;;;;1.25;1.15;;;;;;;;;;5054680;28;20028;-76
2023/08/22 04:00:32;;;;;;;3.72;1.50;;;;;;;;;;5053461;28;20476;-76
2023/08/22 04:02:58;;;;;;;2.42;1.58;;;;;;;;;;5053210;28;20090;-77
2023/08/22 04:05:24;;;;;;;1.88;1.35;;;;;;;;;;5054796;28;20037;-76
2023/08/22 04:07:50;;;;;;;1.83;1.52;;;;;;;;;;5054642;28;20438;-77
2023/08/22 04:10:16;;;;;;;2.25;1.80;;;;;;;;;;5053551;28;20435;-77
2023/08/22 04:12:41;;;;;;;3.40;1.98;;;;;;;;;;5036753;28;20037;-77
2023/08/22 04:15:08;;;;;;;6.43;2.15;;;;;;;;;;5054310;28;20032;-77
2023/08/22 04:17:34;;;;;;;2.78;1.90;;;;;;;;;;5037035;28;20389;-76
2023/08/22 04:19:59;;;;;;;4.03;1.92;;;;;;;;;;5054256;28;20033;-77
2023/08/22 04:22:25;;;;;;;4.32;2.10;;;;;;;;;;5053414;28;20100;-77
2023/08/22 04:24:50;;;;;;;4.22;2.17;;;;;;;;;;5054271;28;20456;-76
2023/08/22 04:27:15;;;;;;;4.28;2.00;;;;;;;;;;5052637;28;20558;-76
2023/08/22 04:29:41;;;;;;;2.85;1.88;;;;;;;;;;5054189;28;20029;-76
2023/08/22 04:32:06;;;;;;;3.40;2.10;;;;;;;;;;5052829;28;20071;-77
2023/08/22 04:34:31;;;;;;;3.85;1.75;;;;;;;;;;5036258;28;20082;-77
2023/08/22 04:36:57;;;;;;;4.50;2.10;;;;;;;;;;5052689;28;20036;-76
2023/08/22 04:39:22;;;;;;;5.38;2.00;;;;;;;;;;5036036;28;20082;-77
2023/08/22 04:41:50;;;;;;;6.60;2.03;;;;;;;;;;5052994;28;20103;-77
2023/08/22 04:44:16;;;;;;;3.25;1.95;;;;;;;;;;5053992;28;20048;-76
2023/08/22 04:46:41;;;;;;;7.65;2.20;;;;;;;;;;5054354;28;20476;-75
2023/08/22 04:49:07;;;;;;;5.40;2.20;;;;;;;;;;5036227;28;20043;-76
2023/08/22 04:51:32;;;;;;;4.35;2.00;;;;;;;;;;5054238;28;20104;-76
2023/08/22 04:53:58;;;;;;;2.90;2.00;;;;;;;;;;5036068;28;20119;-75
2023/08/22 04:56:23;;;;;;;4.15;2.10;;;;;;;;;;5035896;28;20024;-77
2023/08/22 04:58:48;;;;;;;3.05;1.73;;;;;;;;;;5052011;28;20029;-75
2023/08/22 05:01:14;;;;;;;7.35;2.53;;;;;;;;;;5052488;28;20112;-74
2023/08/22 05:03:39;;;;;;;8.20;2.85;;;;;;;;;;5054391;28;20087;-75
2023/08/22 05:06:05;;;;;;;6.97;2.90;;;;;;;;;;5053513;28;20037;-75
2023/08/22 05:08:30;;;;;;;9.57;3.13;;;;;;;;;;5035928;28;20028;-75
2023/08/22 05:10:56;;;;;;;14.15;4.68;;;;;;;;;;5052928;28;20074;-75
2023/08/22 05:13:21;;;;;;;18.63;4.65;;;;;;;;;;5053385;28;20119;-75
2023/08/22 05:15:46;;;;;;;15.20;5.13;;;;;;;;;;5052362;28;20037;-75
2023/08/22 05:18:12;;;;;;;17.85;5.40;;;;;;;;;;5053937;28;20036;-75
2023/08/22 05:20:39;;;;;;;12.40;4.85;;;;;;;;;;5052684;28;20591;-75
2023/08/22 05:23:05;;;;;;;14.73;4.95;;;;;;;;;;5054171;28;20052;-75
2023/08/22 05:25:30;;;;;;;9.70;4.10;;;;;;;;;;5053711;28;20059;-75
2023/08/22 05:27:55;;;;;;;10.95;4.20;;;;;;;;;;5052287;28;20029;-75
2023/08/22 05:30:21;;;;;;;11.07;3.78;;;;;;;;;;5054217;28;20021;-75
2023/08/22 05:32:46;;;;;;;11.73;3.80;;;;;;;;;;5053667;28;20442;-75
2023/08/22 05:35:12;;;;;;;10.32;3.97;;;;;;;;;;5051962;28;20090;-75
2023/08/22 05:37:37;;;;;;;9.38;4.10;;;;;;;;;;5052253;28;20053;-75
2023/08/22 05:40:03;;;;;;;7.60;3.35;;;;;;;;;;5052985;28;20021;-75
2023/08/22 05:42:28;;;;;;;9.93;3.67;;;;;;;;;;5052339;28;20060;-75
2023/08/22 05:44:53;;;;;;;11.15;4.03;;;;;;;;;;5052845;28;20492;-75
2023/08/22 05:47:19;;;;;;;9.05;3.55;;;;;;;;;;5052953;28;20025;-75
2023/08/22 05:49:44;;;;;;;9.35;3.53;;;;;;;;;;5053186;28;20041;-75
2023/08/22 05:52:10;;;;;;;8.00;3.20;;;;;;;;;;5051734;28;20028;-75
2023/08/22 05:54:35;;;;;;;8.57;3.00;;;;;;;;;;5053678;28;20108;-75
2023/08/22 05:57:01;;;;;;;10.30;3.25;;;;;;;;;;5051834;28;20083;-75
2023/08/22 05:59:26;;;;;;;6.82;3.03;;;;;;;;;;5053303;28;20062;-75
2023/08/22 06:01:51;;;;;;;7.72;3.38;;;;;;;;;;5052018;28;20029;-75
2023/08/22 06:04:17;;;;;;;8.00;2.95;;;;;;;;;;5051799;28;20460;-76
2023/08/22 06:06:43;;;;;;;6.57;2.65;;;;;;;;;;5053693;28;20064;-75
2023/08/22 06:09:09;;;;;;;6.78;2.90;;;;;;;;;;5052984;28;20032;-75
2023/08/22 06:11:34;;;;;;;6.15;2.70;;;;;;;;;;5051837;28;20033;-76
2023/08/22 06:13:59;;;;;;;6.90;2.55;;;;;;;;;;5053163;28;20033;-76
2023/08/22 06:16:25;;;;;;;3.88;2.28;;;;;;;;;;5051977;28;20075;-76
2023/08/22 06:18:50;;;;;;;5.30;2.30;;;;;;;;;;5035080;28;20029;-75
2023/08/22 06:21:15;;;;;;;5.28;2.33;;;;;;;;;;5051863;28;20383;-76
2023/08/22 06:23:41;;;;;;;3.78;2.28;;;;;;;;;;5052298;28;20083;-76
2023/08/22 06:26:08;;;;;;;3.50;2.10;;;;;;;;;;5053452;28;20036;-76
2023/08/22 06:28:33;;;;;;;4.03;2.10;;;;;;;;;;5052055;28;20052;-76
2023/08/22 06:31:02;;;;;;;4.95;2.20;;;;;;;;;;5053081;28;20052;-76
2023/08/22 06:33:28;;;;;;;2.67;2.00;;;;;;;;;;5051901;28;20495;-76
2023/08/22 06:35:53;;;;;;;6.10;2.00;;;;;;;;;;5035116;28;20033;-76
2023/08/22 06:38:18;;;;;;;4.88;1.90;;;;;;;;;;5051924;28;20036;-76
2023/08/22 06:40:44;;;;;;;4.43;2.20;;;;;;;;;;5052667;28;20461;-76
2023/08/22 06:43:09;;;;;;;5.30;2.08;;;;;;;;;;5051697;28;20032;-76
2023/08/22 06:45:34;;;;;;;3.33;2.00;;;;;;;;;;5035008;28;20053;-76
2023/08/22 06:48:00;;;;;;;4.25;2.10;;;;;;;;;;5053655;28;20400;-76
2023/08/22 06:50:25;;;;;;;3.03;1.80;;;;;;;;;;5057517;28;20053;-75
2023/08/22 06:52:51;;;;;;;3.78;1.70;;;;;;;;;;5057478;28;20033;-75
2023/08/22 06:55:16;;;;;;;5.07;1.90;;;;;;;;;;5070151;28;20047;-76
2023/08/22 06:57:41;;;;;;;2.85;1.60;;;;;;;;;;5063245;28;20033;-76
2023/08/22 07:00:15;;;;;;;3.72;1.77;;;;;;;;;;5057525;28;20032;-75
2023/08/22 07:02:41;;;;;;;2.65;1.92;;;;;;;;;;5057055;28;20031;-75
2023/08/22 07:05:08;;;;;;;2.42;1.70;;;;;;;;;;5059780;28;20044;-76
2023/08/22 07:07:34;;;;;;;2.83;1.65;;;;;;;;;;5058257;28;20029;-75
2023/08/22 07:10:00;;;;;;;3.20;2.00;;;;;;;;;;5058089;28;20395;-75
2023/08/22 07:12:25;;;;;;;2.05;1.42;;;;;;;;;;5039021;28;20025;-75
2023/08/22 07:14:50;;;;;;;3.42;1.70;;;;;;;;;;5056085;28;20028;-76
2023/08/22 07:17:16;;;;;;;2.90;1.63;;;;;;;;;;5054883;28;20033;-76
2023/08/22 07:19:41;;;;;;;2.97;1.85;;;;;;;;;;5055102;28;20040;-76
2023/08/22 07:22:06;;;;;;;2.38;1.60;;;;;;;;;;5056111;28;20044;-76
2023/08/22 07:24:32;;;;;;;4.22;2.00;;;;;;;;;;5055564;28;20037;-75
2023/08/22 07:26:57;;;;;;;2.80;1.60;;;;;;;;;;5055540;28;20029;-75
2023/08/22 07:29:22;;;;;;;2.17;1.60;;;;;;;;;;5056495;28;20024;-76
2023/08/22 07:31:48;;;;;;;3.28;1.65;;;;;;;;;;5054686;28;20025;-76
2023/08/22 07:34:13;;;;;;;3.75;1.58;;;;;;;;;;5056350;28;20025;-76
2023/08/22 07:36:39;;;;;;;2.40;1.55;;;;;;;;;;5056659;28;20090;-75
2023/08/22 07:39:04;;;;;;;6.25;1.58;;;;;;;;;;5040328;28;20048;-75
2023/08/22 07:41:29;;;;;;;5.00;1.73;;;;;;;;;;5056107;28;20120;-76
2023/08/22 07:43:55;;;;;;;4.88;1.45;;;;;;;;;;5055663;28;20032;-76
2023/08/22 07:46:20;;;;;;;4.05;1.60;;;;;;;;;;5037269;28;20522;-76
2023/08/22 07:48:46;;;;;;;2.83;1.73;;;;;;;;;;5055027;28;20044;-75
2023/08/22 07:51:11;;;;;;;6.22;1.63;;;;;;;;;;5051758;28;20087;-75
2023/08/22 07:53:36;;;;;;;3.05;1.50;;;;;;;;;;5053949;28;20483;-75
2023/08/22 07:56:02;;;;;;;2.45;1.42;;;;;;;;;;5054585;28;20074;-75
2023/08/22 07:58:27;;;;;;;3.33;1.45;;;;;;;;;;5037138;28;20099;-75
2023/08/22 08:00:53;;;;;;;6.28;1.50;;;;;;;;;;5052603;28;20100;-75
2023/08/22 08:03:18;;;;;;;1.73;1.27;;;;;;;;;;5054099;28;20115;-75
2023/08/22 08:05:44;;;;;;;3.20;1.63;;;;;;;;;;5037150;28;20478;-75
2023/08/22 08:08:09;;;;;;;3.00;1.63;;;;;;;;;;5055130;28;20033;-75
2023/08/22 08:10:38;;;;;;;3.88;1.40;;;;;;;;;;5054725;28;20024;-76
2023/08/22 08:13:04;;;;;;;3.40;1.38;;;;;;;;;;5053545;28;20037;-75
2023/08/22 08:15:30;;;;;;;4.32;1.70;;;;;;;;;;5053317;28;20033;-75
2023/08/22 08:17:58;;;;;;;3.65;1.20;;;;;;;;;;5053299;28;20086;-76
2023/08/22 08:20:24;;;;;;;3.67;1.30;;;;;;;;;;5054183;28;20452;-76
2023/08/22 08:22:49;;;;;;;2.80;1.40;;;;;;;;;;5054027;28;20036;-76
2023/08/22 08:25:15;;;;;;;1.77;1.10;;;;;;;;;;5054320;28;20151;-76
2023/08/22 08:27:40;;;;;;;2.72;1.10;;;;;;;;;;5053100;28;20032;-76
2023/08/22 08:30:06;;;;;;;4.13;1.48;;;;;;;;;;5019514;28;20123;-76
2023/08/22 08:32:32;;;;;;;1.85;1.30;;;;;;;;;;5053035;28;20031;-76
2023/08/22 08:34:57;;;;;;;3.45;1.33;;;;;;;;;;5019435;28;20116;-76
2023/08/22 08:37:23;;;;;;;1.92;1.20;;;;;;;;;;5054046;28;20037;-76
2023/08/22 08:39:48;;;;;;;3.42;1.20;;;;;;;;;;5053817;28;20061;-76
2023/08/22 08:42:14;;;;;;;3.28;1.73;;;;;;;;;;5053512;28;20100;-76
2023/08/22 08:44:40;;;;;;;1.95;1.20;;;;;;;;;;5053675;28;20039;-75
2023/08/22 08:47:07;;;;;;;2.83;1.17;;;;;;;;;;5053010;28;20434;-75
2023/08/22 08:49:34;;;;;;;1.58;1.20;;;;;;;;;;5053379;28;20143;-76
2023/08/22 08:52:05;;;;;;;6.65;1.45;;;;;;;;;;5035724;28;20123;-75
2023/08/22 08:54:31;;;;;;;3.72;1.25;;;;;;;;;;5052982;28;20514;-76
2023/08/22 08:56:57;;;;;;;1.98;0.98;;;;;;;;;;5052521;28;20132;-76
2023/08/22 08:59:23;;;;;;;1.02;0.95;;;;;;;;;;5035832;28;20120;-76
2023/08/22 09:01:50;;;;;;;2.10;0.95;;;;;;;;;;5053676;28;20057;-75
2023/08/22 09:04:15;;;;;;;3.63;1.40;;;;;;;;;;5053787;28;20088;-75
2023/08/22 09:06:41;;;;;;;1.65;1.00;;;;;;;;;;5053726;28;20063;-76
2023/08/22 09:09:08;;;;;;;5.45;1.23;;;;;;;;;;5052117;28;20041;-75
2023/08/22 09:11:34;;;;;;;2.17;1.10;;;;;;;;;;5052071;28;20017;-76
2023/08/22 09:14:00;;;;;;;1.98;1.10;;;;;;;;;;5052440;28;20089;-76
2023/08/22 09:16:26;;;;;;;3.80;1.15;;;;;;;;;;5053495;28;20494;-75
2023/08/22 09:18:52;;;;;;;4.32;1.13;;;;;;;;;;5035485;28;20029;-75
2023/08/22 09:21:17;;;;;;;2.45;1.20;;;;;;;;;;5051470;28;20028;-75
2023/08/22 09:23:43;;;;;;;1.00;0.88;;;;;;;;;;5052020;28;20025;-75
2023/08/22 09:26:11;;;;;;;1.20;1.10;;;;;;;;;;5053015;28;20036;-75
2023/08/22 09:28:40;;;;;;;4.50;1.20;;;;;;;;;;5051484;28;20039;-75
2023/08/22 09:31:06;;;;;;;1.77;1.20;;;;;;;;;;5050912;28;20392;-75
2023/08/22 09:33:45;;;;;;;2.88;1.30;;;;;;;;;;5034541;28;20028;-75
2023/08/22 09:36:10;;;;;;;2.13;1.30;;;;;;;;;;5052482;28;20098;-76
2023/08/22 09:38:58;;;;;;;1.70;1.05;;;;;;;;;;5035126;28;20519;-76
2023/08/22 09:41:25;;;;;;;2.50;1.10;;;;;;;;;;5053282;28;20462;-76
2023/08/22 09:44:00;;;;;;;2.65;1.20;;;;;;;;;;5052064;28;20060;-76
2023/08/22 09:46:26;;;;;;;1.67;1.20;;;;;;;;;;5035520;28;20081;-76
2023/08/22 09:48:55;;;;;;;2.45;1.17;;;;;;;;;;5015595;28;20037;-75
2023/08/22 09:51:21;;;;;;;3.28;1.05;;;;;;;;;;5037751;28;20120;-75
2023/08/22 09:53:50;;;;;;;2.45;1.10;;;;;;;;;;5056368;28;20112;-76
2023/08/22 09:56:18;;;;;;;1.60;1.02;;;;;;;;;;5071900;28;20036;-76
2023/08/22 09:58:43;;;;;;;2.05;1.10;;;;;;;;;;5071796;28;20104;-76
2023/08/22 10:01:16;;;;;;;3.67;1.58;;;;;;;;;;5055251;28;20115;-76
2023/08/22 10:03:45;;;;;;;1.15;1.05;;;;;;;;;;5071406;28;20105;-76
2023/08/22 10:06:12;;;;;;;1.33;0.90;;;;;;;;;;5054957;28;20037;-76
2023/08/22 10:08:38;;;;;;;1.00;0.90;;;;;;;;;;5071308;28;20487;-76
2023/08/22 10:11:04;;;;;;;0.85;0.80;;;;;;;;;;5071555;28;20032;-76
2023/08/22 10:13:30;;;;;;;1.10;0.90;;;;;;;;;;5070988;28;20060;-76
2023/08/22 10:15:56;;;;;;;1.00;0.80;;;;;;;;;;5072576;28;20035;-76
2023/08/22 10:18:23;;;;;;;1.52;0.85;;;;;;;;;;5073148;28;20024;-75
2023/08/22 10:20:48;;;;;;;1.20;1.00;;;;;;;;;;5054760;28;20042;-75
2023/08/22 10:23:15;;;;;;;2.00;1.00;;;;;;;;;;5054926;28;20032;-76
2023/08/22 10:25:50;;;;;;;3.45;0.80;;;;;;;;;;5058978;28;20036;-76
2023/08/22 10:28:16;;;;;;;7.28;0.93;;;;;;;;;;5059082;28;20492;-75
2023/08/22 10:31:03;;;;;;;0.63;0.63;;;;;;;;;;5058533;28;20040;-77
2023/08/22 10:33:29;;;;;;;2.10;1.17;;;;;;;;;;5074835;28;20024;-77
2023/08/22 10:36:07;;;;;;;3.90;1.70;;;;;;;;;;5058573;28;20041;-76
2023/08/22 10:38:53;;;;;;;7.97;2.05;;;;;;;;;;5075465;28;20066;-76
2023/08/22 10:41:42;;;;;;;5.53;2.08;;;;;;;;;;5035854;28;20032;-76
2023/08/22 10:44:16;;;;;;;13.63;2.33;;;;;;;;;;5040806;28;20037;-76
2023/08/22 10:47:02;;;;;;;8.20;1.63;;;;;;;;;;5055369;28;20048;-76
2023/08/22 10:49:31;;;;;;;2.92;1.45;;;;;;;;;;5038975;28;20028;-76
2023/08/22 10:52:07;;;;;;;3.25;1.23;;;;;;;;;;5039446;28;20067;-76
2023/08/22 10:54:42;;;;;;;7.90;1.30;;;;;;;;;;5055984;28;20029;-76
2023/08/22 10:57:27;;;;;;;2.22;1.13;;;;;;;;;;5024781;28;20447;-76
2023/08/22 10:59:59;;;;;;;6.32;1.58;;;;;;;;;;5056207;28;20029;-75
2023/08/22 11:02:32;;;;;;;3.25;2.03;;;;;;;;;;5056396;28;20035;-76
2023/08/22 11:05:00;;;;;;;4.10;2.92;;;;;;;;;;5039341;28;20033;-76
2023/08/22 11:07:27;;;;;;;7.55;4.10;;;;;;;;;;5040215;28;20029;-76
2023/08/22 11:09:56;;;;;;;7.68;4.78;;;;;;;;;;5056020;28;20132;-75
2023/08/22 11:12:23;;;;;;;12.90;7.15;;;;;;;;;;5056779;28;20028;-75
2023/08/22 11:14:50;;;;;;;11.63;6.68;;;;;;;;;;5058780;28;20098;-75
2023/08/22 11:17:17;;;;;;;12.63;7.45;;;;;;;;;;5058640;28;20025;-75
2023/08/22 11:19:43;;;;;;;14.90;8.50;;;;;;;;;;5042685;28;20067;-75
2023/08/22 11:22:09;;;;;;;14.80;8.73;;;;;;;;;;5058653;28;20035;-75
2023/08/22 11:24:35;;;;;;;17.52;8.63;;;;;;;;;;5059117;28;20035;-75
2023/08/22 11:27:04;;;;;;;15.73;7.55;;;;;;;;;;5058676;28;20088;-75
2023/08/22 11:29:41;;;;;;;15.93;8.00;;;;;;;;;;5057164;28;20025;-75
2023/08/22 11:32:21;;;;;;;13.43;7.18;;;;;;;;;;5057073;28;20052;-75
2023/08/22 11:34:49;;;;;;;9.80;6.38;;;;;;;;;;5042449;28;20083;-74
2023/08/22 11:37:15;;;;;;;9.18;5.60;;;;;;;;;;5059624;28;20032;-75
2023/08/22 11:39:49;;;;;;;8.63;5.03;;;;;;;;;;5059332;28;20424;-75
2023/08/22 11:42:20;;;;;;;7.32;4.53;;;;;;;;;;5041293;28;20028;-75
2023/08/22 11:45:02;;;;;;;5.85;3.72;;;;;;;;;;5077080;28;20017;-75
2023/08/22 11:47:35;;;;;;;6.45;4.15;;;;;;;;;;5074817;28;20044;-75
2023/08/22 11:50:02;;;;;;;4.83;3.57;;;;;;;;;;5073741;28;20059;-76
2023/08/22 11:52:29;;;;;;;9.20;3.05;;;;;;;;;;5040567;28;20258;-76
2023/08/22 11:55:06;;;;;;;4.07;2.40;;;;;;;;;;5057002;28;20036;-76
2023/08/22 11:57:33;;;;;;;7.32;2.88;;;;;;;;;;5056216;28;20078;-76
2023/08/22 12:00:00;;;;;;;3.45;2.30;;;;;;;;;;5056749;28;20048;-76
2023/08/22 12:02:26;;;;;;;4.10;2.20;;;;;;;;;;5074644;28;20025;-76
2023/08/22 12:04:55;;;;;;;3.95;1.70;;;;;;;;;;5074991;28;20043;-75
2023/08/22 12:07:21;;;;;;;4.45;1.90;;;;;;;;;;5073118;28;20035;-75
2023/08/22 12:10:16;;;;;;;2.97;1.60;;;;;;;;;;5073702;28;20041;-75
2023/08/22 12:12:41;;;;;;;3.85;1.80;;;;;;;;;;5051236;28;20124;-77
2023/08/22 12:15:07;;;;;;;2.40;1.67;;;;;;;;;;5053892;28;20625;-75
2023/08/22 12:17:33;;;;;;;2.67;1.90;;;;;;;;;;5055086;28;20120;-77
2023/08/22 12:19:59;;;;;;;3.60;1.70;;;;;;;;;;5037828;28;20041;-75
2023/08/22 12:22:25;;;;;;;3.95;1.77;;;;;;;;;;5054632;28;20480;-76
2023/08/22 12:24:51;;;;;;;4.45;1.92;;;;;;;;;;5053376;28;20043;-76
2023/08/22 12:27:17;;;;;;;2.17;1.60;;;;;;;;;;5036526;28;20372;-76
2023/08/22 12:29:44;;;;;;;3.58;1.52;;;;;;;;;;5054050;28;20094;-76
2023/08/22 12:32:09;;;;;;;2.92;1.42;;;;;;;;;;5049569;28;20380;-76
2023/08/22 12:34:35;;;;;;;5.15;1.50;;;;;;;;;;5036009;28;20032;-76
2023/08/22 12:37:00;;;;;;;2.85;1.42;;;;;;;;;;5052153;28;20491;-76
2023/08/22 12:39:26;;;;;;;3.75;1.70;;;;;;;;;;5051994;28;20029;-76
2023/08/22 12:41:53;;;;;;;3.45;1.60;;;;;;;;;;5051786;28;20037;-76
2023/08/22 12:44:19;;;;;;;3.13;1.33;;;;;;;;;;5035309;28;20056;-76
2023/08/22 12:46:44;;;;;;;4.00;1.50;;;;;;;;;;5052669;28;20032;-76
2023/08/22 12:49:13;;;;;;;1.98;1.45;;;;;;;;;;5051877;28;20029;-76
2023/08/22 12:51:39;;;;;;;3.35;1.60;;;;;;;;;;5053438;28;20025;-76
2023/08/22 12:54:05;;;;;;;2.00;1.50;;;;;;;;;;5053514;28;20036;-76
2023/08/22 12:56:31;;;;;;;2.72;1.48;;;;;;;;;;5054414;28;20028;-75
2023/08/22 12:58:57;;;;;;;5.25;1.73;;;;;;;;;;5036352;28;20040;-75
2023/08/22 13:01:22;;;;;;;1.98;1.25;;;;;;;;;;5053006;28;20032;-76
2023/08/22 13:03:52;;;;;;;3.65;1.40;;;;;;;;;;5036081;28;20025;-74
2023/08/22 13:06:17;;;;;;;11.15;1.83;;;;;;;;;;5037401;28;20495;-75
2023/08/22 13:08:43;;;;;;;3.42;1.92;;;;;;;;;;5052543;28;20140;-76
2023/08/22 13:11:09;;;;;;;2.83;1.52;;;;;;;;;;5051319;28;20467;-75
2023/08/22 13:13:34;;;;;;;3.97;1.45;;;;;;;;;;5035135;28;20044;-76
2023/08/22 13:16:00;;;;;;;6.43;1.52;;;;;;;;;;5052836;28;20474;-76
2023/08/22 13:18:25;;;;;;;2.47;1.45;;;;;;;;;;5053158;28;20567;-75
2023/08/22 13:20:51;;;;;;;7.55;1.55;;;;;;;;;;5052956;28;20083;-76
2023/08/22 13:23:16;;;;;;;2.47;1.50;;;;;;;;;;5053362;28;20120;-76
2023/08/22 13:25:42;;;;;;;1.60;1.27;;;;;;;;;;5053523;28;20055;-76
2023/08/22 13:28:07;;;;;;;1.30;1.20;;;;;;;;;;5052166;28;20533;-76
2023/08/22 13:30:33;;;;;;;4.20;1.65;;;;;;;;;;5019310;28;20025;-76
2023/08/22 13:32:58;;;;;;;2.50;1.23;;;;;;;;;;5053791;28;20028;-76
2023/08/22 13:35:24;;;;;;;2.83;1.58;;;;;;;;;;5053941;28;20033;-75
2023/08/22 13:37:50;;;;;;;1.95;1.40;;;;;;;;;;5052988;28;20468;-76
2023/08/22 13:40:16;;;;;;;1.80;1.42;;;;;;;;;;5052542;28;20029;-76
2023/08/22 13:42:41;;;;;;;3.20;1.60;;;;;;;;;;5036708;28;20048;-75
2023/08/22 13:45:07;;;;;;;3.60;1.30;;;;;;;;;;5052550;28;20040;-76
2023/08/22 13:47:32;;;;;;;1.85;1.50;;;;;;;;;;5052813;28;20104;-76
2023/08/22 13:49:58;;;;;;;1.33;1.23;;;;;;;;;;5052984;28;20123;-76
2023/08/22 13:52:23;;;;;;;3.63;1.60;;;;;;;;;;5053600;28;20122;-75
2023/08/22 13:54:49;;;;;;;2.10;1.30;;;;;;;;;;5052083;28;20142;-76
2023/08/22 13:57:15;;;;;;;1.73;1.30;;;;;;;;;;5053103;28;20044;-76
2023/08/22 13:59:41;;;;;;;1.35;1.17;;;;;;;;;;5054130;28;20108;-76
2023/08/22 14:02:06;;;;;;;2.38;1.40;;;;;;;;;;5039055;28;20116;-76
2023/08/22 14:04:32;;;;;;;1.85;1.23;;;;;;;;;;5039266;28;20112;-76
2023/08/22 14:06:57;;;;;;;1.58;1.30;;;;;;;;;;5038909;28;20033;-76
2023/08/22 14:09:23;;;;;;;1.65;1.30;;;;;;;;;;5057050;28;20079;-76
2023/08/22 14:11:49;;;;;;;2.50;1.30;;;;;;;;;;5039051;28;20056;-76
2023/08/22 14:14:15;;;;;;;2.35;1.23;;;;;;;;;;5055455;28;20021;-76
2023/08/22 14:16:41;;;;;;;3.20;1.20;;;;;;;;;;5038554;28;20064;-76
2023/08/22 14:19:06;;;;;;;1.45;1.33;;;;;;;;;;5055237;28;20087;-77
2023/08/22 14:21:31;;;;;;;2.20;1.63;;;;;;;;;;5055234;28;20025;-75
2023/08/22 14:23:57;;;;;;;5.25;1.20;;;;;;;;;;5055828;28;20455;-76
2023/08/22 14:26:22;;;;;;;2.13;1.30;;;;;;;;;;5056509;28;20437;-76
2023/08/22 14:28:48;;;;;;;3.28;1.58;;;;;;;;;;5057128;28;20032;-76
2023/08/22 14:31:13;;;;;;;2.88;1.35;;;;;;;;;;5056878;28;20028;-76
2023/08/22 14:33:39;;;;;;;2.17;1.20;;;;;;;;;;5055012;28;20060;-76
2023/08/22 14:36:06;;;;;;;1.35;1.13;;;;;;;;;;5056756;28;20025;-76
2023/08/22 14:38:31;;;;;;;2.38;1.30;;;;;;;;;;5055582;28;20020;-76
2023/08/22 14:40:58;;;;;;;1.98;1.52;;;;;;;;;;5038623;28;20032;-76